Time;durP1;ratioP1;P1;durP2;ratioP2;P2;SDS_P1;SDS_P2;PMS_P1;PMS_P2;Temp;Humidity;BMP_temperature;BMP_pressure;BME280_temperature;BME280_humidity;BME280_pressure;Samples;Min_cycle;Max_cycle;Signal;HPM_P1;HPM_P2
2024/01/03 00:01:07;;;;;;;38.57;21.23;;;2.80;99.90;;;;;;10421604;28;20212;-79
2024/01/03 00:06:33;;;;;;;36.03;21.10;;;2.70;99.90;;;;;;10421357;28;20196;-79
2024/01/03 00:11:55;;;;;;;37.30;21.53;;;2.60;99.90;;;;;;10420945;28;20279;-79
2024/01/03 00:17:18;;;;;;;35.70;20.30;;;2.60;99.90;;;;;;10414552;28;20272;-78
2024/01/03 00:22:40;;;;;;;33.37;21.10;;;2.60;99.90;;;;;;10407820;28;20326;-79
2024/01/03 00:28:02;;;;;;;34.07;20.23;;;2.60;99.90;;;;;;10396369;28;20197;-79
2024/01/03 00:33:24;;;;;;;32.13;18.77;;;2.50;99.90;;;;;;10379875;28;20506;-81
2024/01/03 00:38:45;;;;;;;32.60;19.10;;;2.50;78.50;;;;;;10400393;28;20491;-79
2024/01/03 00:44:06;;;;;;;29.67;18.73;;;2.50;99.90;;;;;;10401624;28;20259;-79
2024/01/03 00:49:28;;;;;;;28.07;16.73;;;2.50;83.60;;;;;;10387003;28;20209;-79
2024/01/03 00:54:50;;;;;;;30.60;16.13;;;2.40;49.60;;;;;;10400562;28;20233;-79
2024/01/03 01:00:12;;;;;;;29.53;16.43;;;2.40;33.00;;;;;;10402470;28;20439;-80
2024/01/03 01:05:33;;;;;;;27.23;16.10;;;2.30;74.20;;;;;;10427900;28;20211;-79
2024/01/03 01:10:56;;;;;;;27.67;15.47;;;2.30;8.10;;;;;;10386885;28;20196;-81
2024/01/03 01:16:17;;;;;;;23.90;14.87;;;2.20;12.50;;;;;;10401026;28;20196;-79
2024/01/03 01:21:42;;;;;;;24.33;14.27;;;2.20;1.00;;;;;;10400401;28;20267;-79
2024/01/03 01:27:04;;;;;;;20.67;13.57;;;2.20;54.40;;;;;;10385753;28;20204;-79
2024/01/03 01:32:25;;;;;;;21.87;12.33;;;2.30;1.00;;;;;;10400188;28;20387;-79
2024/01/03 01:37:46;;;;;;;22.30;12.77;;;2.30;1.00;;;;;;10388672;28;20200;-79
2024/01/03 01:43:26;;;;;;;20.30;13.13;;;2.30;1.00;;;;;;10398901;28;20229;-78
2024/01/03 01:48:47;;;;;;;19.47;11.97;;;2.30;1.00;;;;;;10397848;28;20196;-79
2024/01/03 01:54:09;;;;;;;19.10;11.33;;;2.20;1.00;;;;;;10393179;28;20233;-80
2024/01/03 01:59:31;;;;;;;15.50;10.63;;;2.20;1.00;;;;;;10384296;28;20292;-80
2024/01/03 02:04:53;;;;;;;18.37;10.60;;;2.20;1.00;;;;;;10432183;28;20234;-78
2024/01/03 02:10:15;;;;;;;17.23;11.00;;;2.20;1.00;;;;;;10424984;28;20196;-79
2024/01/03 02:15:36;;;;;;;20.33;10.87;;;2.20;1.00;;;;;;10439636;28;20196;-80
2024/01/03 02:20:59;;;;;;;14.17;9.33;;;2.20;1.00;;;;;;10438562;28;20247;-78
2024/01/03 02:26:20;;;;;;;13.63;9.17;;;2.10;99.90;;;;;;10438054;28;20205;-78
2024/01/03 02:31:45;;;;;;;13.07;8.37;;;2.10;99.90;;;;;;10410606;28;20253;-80
2024/01/03 02:37:09;;;;;;;10.77;7.77;;;2.00;1.00;;;;;;10411282;28;20197;-80
2024/01/03 02:42:30;;;;;;;11.37;7.20;;;2.10;1.00;;;;;;10396473;28;20305;-79
2024/01/03 02:47:51;;;;;;;11.10;7.27;;;2.00;99.90;;;;;;10397432;28;20189;-79
2024/01/03 02:53:13;;;;;;;10.37;7.17;;;1.90;99.90;;;;;;10402252;28;20246;-79
2024/01/03 02:58:34;;;;;;;10.47;7.43;;;1.90;99.90;;;;;;10387872;28;20201;-79
2024/01/03 03:03:56;;;;;;;11.30;6.93;;;1.90;99.90;;;;;;10441366;28;20212;-78
2024/01/03 03:09:18;;;;;;;11.03;7.27;;;1.80;99.90;;;;;;10436464;28;20491;-82
2024/01/03 03:14:39;;;;;;;11.30;7.37;;;1.80;1.00;;;;;;10436352;28;20256;-81
2024/01/03 03:20:00;;;;;;;11.97;6.77;;;1.80;39.50;;;;;;10436429;28;20215;-79
2024/01/03 03:25:21;;;;;;;10.43;7.03;;;1.80;99.90;;;;;;10429031;28;20201;-81
2024/01/03 03:30:42;;;;;;;10.47;6.67;;;1.70;99.90;;;;;;10394728;28;20204;-79
2024/01/03 03:36:14;;;;;;;10.20;7.37;;;1.60;1.00;;;;;;10395203;28;20360;-78
2024/01/03 03:41:37;;;;;;;10.30;7.47;;;1.60;1.00;;;;;;10394564;28;20235;-80
2024/01/03 03:46:58;;;;;;;11.97;7.77;;;1.60;1.00;;;;;;10395775;28;20238;-79
2024/01/03 03:52:19;;;;;;;10.53;7.67;;;1.70;1.00;;;;;;10416481;28;20210;-81
2024/01/03 03:57:40;;;;;;;13.17;8.37;;;1.70;99.90;;;;;;10434803;28;20234;-81
2024/01/03 04:03:01;;;;;;;11.57;8.17;;;1.70;1.00;;;;;;10435424;28;20218;-80
2024/01/03 04:08:22;;;;;;;12.10;7.30;;;1.70;99.90;;;;;;10435333;28;20387;-81
2024/01/03 04:13:44;;;;;;;13.90;8.53;;;1.60;99.90;;;;;;10442393;28;20413;-81
2024/01/03 04:19:05;;;;;;;9.30;7.10;;;1.60;1.00;;;;;;10443102;28;20435;-81
2024/01/03 04:24:26;;;;;;;11.67;7.43;;;1.70;99.90;;;;;;10441610;28;20247;-79
2024/01/03 04:29:47;;;;;;;12.87;7.90;;;1.70;99.90;;;;;;10439419;28;20270;-80
2024/01/03 04:35:10;;;;;;;12.50;7.30;;;1.70;1.00;;;;;;10442676;28;20267;-81
2024/01/03 04:40:33;;;;;;;11.53;7.50;;;1.60;1.00;;;;;;10408987;28;20227;-80
2024/01/03 04:45:54;;;;;;;12.93;7.80;;;1.60;99.90;;;;;;10441460;28;20203;-79
2024/01/03 04:51:16;;;;;;;11.83;7.57;;;1.50;99.90;;;;;;10442685;28;20390;-80
2024/01/03 04:56:39;;;;;;;11.57;7.17;;;1.50;99.90;;;;;;10420715;28;20248;-79
2024/01/03 05:02:00;;;;;;;13.57;7.87;;;1.60;99.90;;;;;;10431472;28;20231;-79
2024/01/03 05:07:21;;;;;;;12.87;7.57;;;1.60;99.90;;;;;;10426288;28;20278;-81
2024/01/03 05:12:42;;;;;;;12.10;7.33;;;1.50;1.00;;;;;;10427232;28;20195;-78
2024/01/03 05:18:04;;;;;;;14.07;6.40;;;1.50;99.90;;;;;;10442082;28;20187;-79
2024/01/03 05:23:25;;;;;;;13.40;7.70;;;1.50;99.90;;;;;;10440186;28;20281;-78
2024/01/03 05:28:46;;;;;;;12.67;7.80;;;1.50;99.90;;;;;;10410774;28;20561;-78
2024/01/03 05:34:09;;;;;;;8.27;5.60;;;1.60;1.00;;;;;;10412582;28;20415;-77
2024/01/03 05:39:30;;;;;;;12.10;6.33;;;1.60;1.00;;;;;;10401284;28;20204;-79
2024/01/03 05:44:51;;;;;;;12.53;7.07;;;1.40;1.00;;;;;;10399092;28;20360;-80
2024/01/03 05:50:13;;;;;;;10.57;7.37;;;1.40;99.90;;;;;;10402037;28;20195;-78
2024/01/03 05:55:34;;;;;;;11.50;7.57;;;1.40;1.00;;;;;;10425696;28;20263;-77
2024/01/03 06:00:56;;;;;;;14.93;9.80;;;1.40;99.90;;;;;;10398060;28;20414;-78
2024/01/03 06:06:18;;;;;;;10.87;7.47;;;1.40;99.90;;;;;;10411686;28;20210;-79
2024/01/03 06:11:39;;;;;;;15.60;10.27;;;1.40;99.90;;;;;;10397494;28;20255;-79
2024/01/03 06:17:00;;;;;;;9.37;7.43;;;1.40;99.90;;;;;;10397348;28;20276;-79
2024/01/03 06:22:22;;;;;;;25.17;15.50;;;1.40;99.90;;;;;;10397987;28;20216;-80
2024/01/03 06:27:43;;;;;;;15.03;8.60;;;1.30;1.00;;;;;;10401292;28;20231;-80
2024/01/03 06:33:05;;;;;;;13.30;7.90;;;1.30;99.90;;;;;;10401362;28;20391;-81
2024/01/03 06:38:26;;;;;;;9.43;6.50;;;1.30;99.90;;;;;;10407859;28;20250;-82
2024/01/03 06:43:47;;;;;;;12.67;7.60;;;1.30;99.90;;;;;;10396598;28;20223;-80
2024/01/03 06:49:09;;;;;;;13.17;7.03;;;1.30;1.00;;;;;;10396425;28;20263;-80
2024/01/03 06:54:30;;;;;;;11.43;6.63;;;1.30;1.00;;;;;;10415685;28;20285;-79
2024/01/03 06:59:51;;;;;;;22.07;9.17;;;1.20;99.90;;;;;;10396805;28;20188;-81
2024/01/03 07:05:12;;;;;;;21.73;10.07;;;1.20;99.90;;;;;;10395265;28;20210;-80
2024/01/03 07:10:34;;;;;;;14.13;8.03;;;1.10;99.90;;;;;;10395354;28;20343;-81
2024/01/03 07:15:55;;;;;;;20.13;10.37;;;1.20;99.90;;;;;;10396529;28;20542;-81
2024/01/03 07:21:16;;;;;;;41.20;16.73;;;1.10;91.20;;;;;;10395713;28;20221;-80
2024/01/03 07:26:38;;;;;;;25.47;12.90;;;1.20;99.90;;;;;;10425825;28;20203;-80
2024/01/03 07:31:59;;;;;;;18.97;9.90;;;1.10;99.90;;;;;;10436924;28;20194;-78
2024/01/03 07:37:20;;;;;;;18.30;9.80;;;1.10;1.00;;;;;;10429779;28;20245;-79
2024/01/03 07:42:42;;;;;;;16.53;8.47;;;1.10;99.90;;;;;;10395674;28;20591;-78
2024/01/03 07:48:03;;;;;;;16.00;8.27;;;1.10;99.90;;;;;;10395722;28;20187;-78
2024/01/03 07:53:25;;;;;;;18.53;8.37;;;1.10;1.00;;;;;;10402243;28;20306;-81
2024/01/03 07:58:47;;;;;;;17.20;9.47;;;1.10;99.90;;;;;;10394654;28;20211;-81
2024/01/03 08:04:08;;;;;;;25.67;10.80;;;1.10;1.00;;;;;;10393870;28;20336;-83
2024/01/03 08:09:30;;;;;;;14.73;8.30;;;1.00;99.90;;;;;;10377315;28;20258;-82
2024/01/03 08:14:51;;;;;;;16.63;8.77;;;1.10;1.00;;;;;;10426151;28;20200;-81
2024/01/03 08:20:13;;;;;;;26.37;12.47;;;1.00;99.90;;;;;;10416700;28;20194;-82
2024/01/03 08:25:34;;;;;;;25.90;13.23;;;1.10;99.90;;;;;;10400607;28;20211;-81
2024/01/03 08:30:56;;;;;;;24.17;11.27;;;1.10;99.90;;;;;;10415935;28;20494;-80
2024/01/03 08:36:17;;;;;;;43.03;19.17;;;1.10;1.00;;;;;;10415543;28;20207;-80
2024/01/03 08:41:38;;;;;;;31.23;15.23;;;1.20;1.00;;;;;;10392418;28;20230;-80
2024/01/03 08:47:00;;;;;;;22.23;11.77;;;1.30;1.00;;;;;;10414421;28;20214;-80
2024/01/03 08:52:21;;;;;;;25.67;11.93;;;1.20;1.00;;;;;;10415326;28;20242;-84
2024/01/03 08:57:43;;;;;;;21.03;9.90;;;1.20;1.00;;;;;;10433234;28;20192;-80
2024/01/03 09:03:04;;;;;;;24.23;10.47;;;1.30;99.90;;;;;;10408670;28;20230;-80
2024/01/03 09:08:25;;;;;;;11.90;7.73;;;1.30;1.00;;;;;;10437757;28;20236;-80
2024/01/03 09:13:49;;;;;;;15.10;8.50;;;1.30;99.90;;;;;;10436000;28;20570;-80
2024/01/03 09:19:10;;;;;;;28.23;12.17;;;1.30;99.90;;;;;;10435441;28;20242;-80
2024/01/03 09:24:32;;;;;;;45.53;22.23;;;1.20;99.90;;;;;;10421623;28;20302;-83
2024/01/03 09:29:53;;;;;;;22.60;11.37;;;1.30;1.00;;;;;;10379584;28;20220;-80
2024/01/03 09:35:15;;;;;;;11.47;6.83;;;1.30;1.00;;;;;;10417244;28;20277;-80
2024/01/03 09:40:36;;;;;;;17.13;9.70;;;1.40;99.90;;;;;;10434416;28;20210;-80
2024/01/03 09:45:58;;;;;;;24.53;12.37;;;1.40;99.90;;;;;;10405685;28;20216;-80
2024/01/03 09:51:20;;;;;;;18.90;9.47;;;1.40;1.00;;;;;;10403692;28;20279;-81
2024/01/03 09:56:42;;;;;;;20.23;10.67;;;1.40;1.00;;;;;;10421592;28;20416;-79
2024/01/03 10:02:05;;;;;;;24.80;14.03;;;1.40;99.90;;;;;;10434557;28;20225;-82
2024/01/03 10:07:36;;;;;;;16.27;10.53;;;1.40;1.00;;;;;;10404268;28;20510;-82
2024/01/03 10:13:14;;;;;;;22.33;9.27;;;1.40;1.00;;;;;;10434528;28;20412;-81
2024/01/03 10:18:35;;;;;;;26.00;13.50;;;1.20;99.90;;;;;;10418914;28;20209;-80
2024/01/03 10:24:05;;;;;;;23.43;12.50;;;1.30;99.90;;;;;;10410161;28;20226;-78
2024/01/03 10:29:28;;;;;;;15.87;9.07;;;1.20;92.40;;;;;;10432627;28;20399;-79
2024/01/03 10:34:50;;;;;;;13.33;8.37;;;1.30;1.00;;;;;;10418225;28;20204;-80
2024/01/03 10:40:12;;;;;;;15.93;9.80;;;1.20;1.00;;;;;;10433080;28;20197;-80
2024/01/03 10:45:34;;;;;;;10.00;6.10;;;1.20;1.00;;;;;;10417789;28;20206;-80
2024/01/03 10:50:59;;;;;;;16.70;9.13;;;1.20;98.90;;;;;;10430920;28;20200;-79
2024/01/03 10:56:22;;;;;;;18.90;10.07;;;1.10;1.00;;;;;;10418308;28;20511;-79
2024/01/03 11:01:53;;;;;;;15.37;10.23;;;1.20;99.90;;;;;;10417909;28;20227;-79
2024/01/03 11:07:50;;;;;;;15.67;9.27;;;1.20;1.00;;;;;;10397476;28;20328;-80
2024/01/03 11:13:32;;;;;;;15.47;8.10;;;1.20;70.50;;;;;;10416120;28;20241;-79
2024/01/03 11:18:53;;;;;;;16.03;8.50;;;1.00;1.00;;;;;;10377027;28;20204;-79
2024/01/03 11:24:20;;;;;;;15.70;9.20;;;1.00;99.90;;;;;;10376080;28;20235;-80
2024/01/03 11:29:43;;;;;;;19.20;10.03;;;1.00;55.80;;;;;;10375498;28;20205;-80
2024/01/03 11:35:08;;;;;;;16.60;9.30;;;1.00;99.90;;;;;;10408838;28;20229;-80
2024/01/03 11:40:29;;;;;;;19.67;10.90;;;1.10;1.00;;;;;;10453614;28;20198;-79
2024/01/03 11:45:50;;;;;;;19.43;11.40;;;1.00;1.00;;;;;;10414101;28;20198;-80
2024/01/03 11:51:22;;;;;;;30.30;14.93;;;0.90;1.00;;;;;;10460023;28;20206;-80
2024/01/03 11:56:43;;;;;;;21.50;13.03;;;0.80;99.90;;;;;;10412014;28;20305;-81
2024/01/03 12:02:05;;;;;;;22.37;12.33;;;0.70;1.00;;;;;;10391913;28;20238;-78
2024/01/03 12:07:31;;;;;;;15.33;9.87;;;0.80;1.00;;;;;;10419780;28;20237;-78
2024/01/03 12:12:53;;;;;;;21.63;13.40;;;0.70;99.90;;;;;;10415712;28;20528;-81
2024/01/03 12:18:14;;;;;;;23.63;13.60;;;0.80;99.90;;;;;;10404782;28;20240;-79
2024/01/03 12:23:36;;;;;;;19.87;11.10;;;0.80;99.90;;;;;;10423334;28;20300;-81
2024/01/03 12:29:04;;;;;;;22.40;13.70;;;0.80;99.90;;;;;;10410705;28;20552;-81
2024/01/03 12:34:25;;;;;;;21.60;12.23;;;0.70;1.00;;;;;;10392280;28;20256;-79
2024/01/03 12:39:47;;;;;;;23.03;12.93;;;0.80;1.00;;;;;;10404012;28;20203;-81
2024/01/03 12:45:09;;;;;;;18.83;11.70;;;0.80;99.90;;;;;;10393487;28;20240;-81
2024/01/03 12:50:30;;;;;;;21.77;11.87;;;0.70;1.00;;;;;;10416718;28;20234;-81
2024/01/03 12:55:52;;;;;;;31.00;15.40;;;0.60;99.90;;;;;;10429650;28;20251;-81
2024/01/03 13:01:13;;;;;;;30.37;13.90;;;0.70;1.00;;;;;;10412654;28;20553;-82
2024/01/03 13:06:35;;;;;;;24.33;13.70;;;0.70;1.00;;;;;;10417788;28;20556;-81
2024/01/03 13:11:57;;;;;;;14.30;9.77;;;0.70;1.00;;;;;;10439119;28;20211;-85
2024/01/03 13:17:19;;;;;;;24.67;13.40;;;0.60;1.00;;;;;;10400688;28;20288;-84
2024/01/03 13:22:40;;;;;;;19.37;11.90;;;0.60;1.00;;;;;;10405043;28;20253;-82
2024/01/03 13:28:01;;;;;;;20.03;11.23;;;0.70;1.00;;;;;;10385631;28;20207;-81
2024/01/03 13:33:24;;;;;;;21.97;12.30;;;0.60;99.90;;;;;;10398027;28;20238;-80
2024/01/03 13:38:45;;;;;;;20.57;12.10;;;0.50;1.00;;;;;;10409729;28;20279;-82
2024/01/03 13:44:07;;;;;;;29.47;14.63;;;0.60;1.00;;;;;;10420342;28;20243;-81
2024/01/03 13:49:28;;;;;;;24.47;14.03;;;0.60;45.10;;;;;;10415572;28;20246;-81
2024/01/03 13:54:50;;;;;;;35.03;17.30;;;0.60;1.00;;;;;;10412543;28;20245;-79
2024/01/03 14:00:13;;;;;;;26.47;15.00;;;0.50;28.40;;;;;;10401126;28;20211;-79
2024/01/03 14:05:35;;;;;;;56.33;22.30;;;0.40;1.00;;;;;;10429135;28;20239;-78
2024/01/03 14:10:56;;;;;;;27.80;15.87;;;0.40;99.90;;;;;;10417774;28;20255;-78
2024/01/03 14:16:18;;;;;;;21.13;12.50;;;0.30;1.00;;;;;;10413443;28;20206;-79
2024/01/03 14:21:49;;;;;;;22.47;13.87;;;0.40;99.90;;;;;;10399993;28;20250;-79
2024/01/03 14:27:10;;;;;;;24.70;15.20;;;0.30;1.00;;;;;;10417940;28;20195;-79
2024/01/03 14:32:32;;;;;;;22.70;15.20;;;0.20;1.00;;;;;;10416498;28;20213;-79
2024/01/03 14:37:53;;;;;;;19.73;11.97;;;0.20;1.00;;;;;;10445697;28;20211;-79
2024/01/03 14:43:57;;;;;;;21.17;13.80;;;0.30;99.90;;;;;;10417745;28;20233;-80
2024/01/03 14:49:02;;;;;;;21.33;13.43;;;0.20;1.00;;;;;;10423833;28;20282;-79
2024/01/03 14:54:24;;;;;;;19.50;12.23;;;0.20;99.90;;;;;;10416859;28;20330;-78
2024/01/03 14:59:45;;;;;;;20.30;12.90;;;0.10;99.90;;;;;;10422958;28;20285;-78
2024/01/03 15:05:07;;;;;;;22.33;14.93;;;0.10;1.00;;;;;;10392463;28;20231;-78
2024/01/03 15:10:28;;;;;;;23.93;15.57;;;0.10;1.00;;;;;;10423238;28;20206;-78
2024/01/03 15:15:50;;;;;;;21.63;14.93;;;0.10;1.00;;;;;;10389786;28;20501;-78
2024/01/03 15:21:12;;;;;;;16.47;11.17;;;0.10;1.00;;;;;;10423101;28;20220;-78
2024/01/03 15:26:33;;;;;;;21.00;13.23;;;0.10;99.90;;;;;;10387067;28;20195;-78
2024/01/03 15:31:54;;;;;;;20.97;13.47;;;0.10;99.90;;;;;;10413094;28;20198;-82
2024/01/03 15:37:17;;;;;;;18.97;11.93;;;0.10;99.90;;;;;;10412869;28;20217;-78
2024/01/03 15:42:39;;;;;;;23.30;14.33;;;0.10;1.00;;;;;;10406624;28;20442;-78
2024/01/03 15:48:00;;;;;;;20.83;13.23;;;0.10;1.00;;;;;;10426883;28;20214;-78
2024/01/03 15:53:21;;;;;;;20.47;13.93;;;0.10;99.90;;;;;;10463986;28;20238;-79
2024/01/03 15:58:43;;;;;;;25.83;14.53;;;0.20;2.00;;;;;;10423504;28;20197;-81
2024/01/03 16:04:04;;;;;;;25.47;13.83;;;0.10;1.00;;;;;;10399105;28;20281;-81
2024/01/03 16:09:26;;;;;;;21.37;13.33;;;0.10;99.90;;;;;;10443207;28;20285;-81
2024/01/03 16:14:48;;;;;;;24.13;14.37;;;0.00;99.90;;;;;;10428971;28;20409;-77
2024/01/03 16:20:12;;;;;;;20.87;12.93;;;0.00;1.00;;;;;;10404486;28;20245;-79
2024/01/03 16:25:36;;;;;;;21.87;13.13;;;-0.10;1.00;;;;;;10410964;28;20281;-77
2024/01/03 16:30:57;;;;;;;25.73;15.33;;;-0.10;1.00;;;;;;10435930;28;20229;-77
2024/01/03 16:36:19;;;;;;;25.67;14.57;;;0.00;99.90;;;;;;10432838;28;20251;-77
2024/01/03 16:41:40;;;;;;;25.20;15.50;;;0.10;1.00;;;;;;10443960;28;20226;-77
2024/01/03 16:47:01;;;;;;;23.73;14.37;;;0.10;92.90;;;;;;10458580;28;20211;-77
2024/01/03 16:52:22;;;;;;;39.90;21.80;;;0.10;1.00;;;;;;10457764;28;20202;-77
2024/01/03 16:57:43;;;;;;;26.10;16.37;;;0.10;1.00;;;;;;10456528;28;20214;-77
2024/01/03 17:03:05;;;;;;;24.90;15.50;;;0.10;1.00;;;;;;10428382;28;20422;-77
2024/01/03 17:08:27;;;;;;;21.97;14.43;;;0.10;38.60;;;;;;10409180;28;20198;-78
2024/01/03 17:13:48;;;;;;;22.17;13.73;;;0.10;99.90;;;;;;10422204;28;20208;-77
2024/01/03 17:19:09;;;;;;;26.97;15.53;;;0.10;99.90;;;;;;10409968;28;20194;-79
2024/01/03 17:24:31;;;;;;;28.90;16.57;;;0.00;99.90;;;;;;10411592;28;20238;-79
2024/01/03 17:29:52;;;;;;;34.03;18.73;;;0.00;99.90;;;;;;10429430;28;20217;-78
2024/01/03 17:35:14;;;;;;;33.57;19.63;;;0.00;99.90;;;;;;10404812;28;20223;-76
2024/01/03 17:40:36;;;;;;;24.17;15.20;;;0.00;99.90;;;;;;10397893;28;20194;-76
2024/01/03 17:45:57;;;;;;;26.23;16.83;;;0.00;1.00;;;;;;10425474;28;20223;-77
2024/01/03 17:51:19;;;;;;;29.40;16.97;;;0.00;1.00;;;;;;10419921;28;20382;-78
2024/01/03 17:56:40;;;;;;;25.07;16.33;;;0.00;1.00;;;;;;10399111;28;20248;-78
2024/01/03 18:02:01;;;;;;;24.60;16.33;;;0.00;1.00;;;;;;10431109;28;20299;-78
2024/01/03 18:07:23;;;;;;;35.27;18.40;;;-0.10;1.00;;;;;;10398096;28;20222;-78
2024/01/03 18:12:44;;;;;;;26.87;16.80;;;0.00;99.90;;;;;;10416469;28;20260;-78
2024/01/03 18:18:06;;;;;;;31.27;17.33;;;0.00;1.00;;;;;;10415852;28;20213;-79
2024/01/03 18:23:29;;;;;;;24.73;14.93;;;0.00;1.00;;;;;;10404805;28;20309;-80
2024/01/03 18:28:50;;;;;;;21.80;13.57;;;0.00;1.00;;;;;;10419731;28;20290;-78
2024/01/03 18:34:12;;;;;;;22.90;13.20;;;0.00;1.00;;;;;;10417994;28;20202;-77
2024/01/03 18:39:33;;;;;;;23.03;14.20;;;0.00;1.00;;;;;;10439671;28;20209;-79
2024/01/03 18:44:55;;;;;;;26.03;15.37;;;-0.10;1.00;;;;;;10442970;28;20277;-78
2024/01/03 18:50:17;;;;;;;39.30;21.40;;;-0.10;1.00;;;;;;10448127;28;20277;-78
2024/01/03 18:55:38;;;;;;;26.23;15.10;;;0.00;1.00;;;;;;10419134;28;20544;-78
2024/01/03 19:01:03;;;;;;;24.47;14.77;;;-0.10;99.90;;;;;;10418180;28;20252;-77
2024/01/03 19:06:26;;;;;;;24.10;15.03;;;-0.20;1.00;;;;;;10420501;28;20229;-78
2024/01/03 19:11:48;;;;;;;26.83;16.80;;;-0.10;99.90;;;;;;10423602;28;20209;-79
2024/01/03 19:17:11;;;;;;;26.67;15.07;;;-0.20;1.00;;;;;;10415720;28;20207;-78
2024/01/03 19:22:35;;;;;;;22.73;13.63;;;-0.20;99.90;;;;;;10400245;28;20317;-78
2024/01/03 19:27:56;;;;;;;24.43;13.80;;;-0.20;1.00;;;;;;10421580;28;20199;-80
2024/01/03 19:33:18;;;;;;;34.10;19.20;;;-0.30;1.00;;;;;;10416961;28;20501;-78
2024/01/03 19:38:39;;;;;;;33.07;16.90;;;-0.30;1.00;;;;;;10418885;28;20282;-78
2024/01/03 19:44:01;;;;;;;30.20;14.27;;;-0.30;99.90;;;;;;10401643;28;20493;-78
2024/01/03 19:49:22;;;;;;;26.00;15.17;;;-0.30;1.00;;;;;;10402083;28;20250;-78
2024/01/03 19:54:43;;;;;;;21.77;14.07;;;-0.30;1.00;;;;;;10399074;28;20249;-78
2024/01/03 20:00:06;;;;;;;29.27;16.67;;;-0.20;99.90;;;;;;10417411;28;20202;-78
2024/01/03 20:05:27;;;;;;;29.20;15.40;;;-0.20;14.10;;;;;;10394472;28;20546;-78
2024/01/03 20:10:49;;;;;;;29.13;15.67;;;-0.30;1.00;;;;;;10393965;28;20224;-78
2024/01/03 20:16:12;;;;;;;22.93;13.20;;;-0.20;1.00;;;;;;10422141;28;20494;-78
2024/01/03 20:21:34;;;;;;;18.53;11.97;;;-0.20;1.00;;;;;;10429154;28;20423;-78
2024/01/03 20:26:57;;;;;;;21.50;12.20;;;-0.30;1.00;;;;;;10400613;28;20237;-78
2024/01/03 20:32:18;;;;;;;27.83;13.60;;;-0.40;55.70;;;;;;10431939;28;20285;-78
2024/01/03 20:37:40;;;;;;;22.90;14.23;;;-0.40;1.00;;;;;;10429098;28;20216;-78
2024/01/03 20:43:02;;;;;;;27.37;15.57;;;-0.40;99.90;;;;;;10418495;28;20224;-78
2024/01/03 20:48:23;;;;;;;28.57;15.60;;;-0.50;99.90;;;;;;10418311;28;20203;-78
2024/01/03 20:53:44;;;;;;;26.27;14.77;;;-0.50;18.80;;;;;;10441317;28;20249;-78
2024/01/03 20:59:06;;;;;;;26.87;14.50;;;-0.60;94.20;;;;;;10439248;28;20212;-78
2024/01/03 21:04:27;;;;;;;23.13;13.63;;;-0.70;1.00;;;;;;10455328;28;20237;-79
2024/01/03 21:09:48;;;;;;;20.80;13.17;;;-0.60;1.00;;;;;;10428721;28;20551;-78
2024/01/03 21:15:09;;;;;;;30.50;15.47;;;-0.60;99.90;;;;;;10417213;28;20222;-79
2024/01/03 21:20:31;;;;;;;23.03;13.63;;;-0.70;99.90;;;;;;10405806;28;20202;-79
2024/01/03 21:25:52;;;;;;;26.27;13.93;;;-0.60;1.00;;;;;;10413620;28;20230;-78
2024/01/03 21:31:13;;;;;;;20.73;11.93;;;-0.60;99.90;;;;;;10416217;28;20443;-78
2024/01/03 21:36:37;;;;;;;26.23;15.40;;;-0.70;1.00;;;;;;10427128;28;20213;-78
2024/01/03 21:42:00;;;;;;;24.33;14.97;;;-0.70;99.90;;;;;;10419510;28;20256;-77
2024/01/03 21:47:21;;;;;;;22.17;13.20;;;-0.70;1.00;;;;;;10413929;28;20209;-78
2024/01/03 21:52:46;;;;;;;22.30;13.37;;;-0.70;1.00;;;;;;10407067;28;20276;-78
2024/01/03 21:58:07;;;;;;;25.17;14.33;;;-0.60;99.90;;;;;;10399922;28;20389;-78
2024/01/03 22:03:28;;;;;;;24.90;14.67;;;-0.60;99.90;;;;;;10421058;28;20248;-79
2024/01/03 22:08:49;;;;;;;23.27;14.13;;;-0.60;1.00;;;;;;10415163;28;20196;-79
2024/01/03 22:14:13;;;;;;;24.20;14.00;;;-0.60;1.00;;;;;;10433957;28;20273;-79
2024/01/03 22:19:34;;;;;;;24.30;14.07;;;-0.60;1.00;;;;;;10404760;28;20200;-78
2024/01/03 22:24:56;;;;;;;22.60;13.67;;;-0.70;1.00;;;;;;10409241;28;20226;-78
2024/01/03 22:30:17;;;;;;;24.20;13.50;;;-0.70;1.00;;;;;;10403386;28;20205;-78
2024/01/03 22:35:38;;;;;;;26.53;15.00;;;-0.80;1.00;;;;;;10420819;28;20193;-77
2024/01/03 22:41:00;;;;;;;24.67;14.03;;;-0.80;99.90;;;;;;10414769;28;20209;-78
2024/01/03 22:46:21;;;;;;;26.93;14.10;;;-0.80;1.00;;;;;;10414053;28;20229;-77
2024/01/03 22:51:42;;;;;;;27.07;14.57;;;-0.80;99.90;;;;;;10416036;28;20229;-78
2024/01/03 22:57:04;;;;;;;27.53;14.97;;;-0.80;1.00;;;;;;10401362;28;20250;-77
2024/01/03 23:02:26;;;;;;;25.63;15.27;;;-0.80;99.90;;;;;;10414099;28;20449;-81
2024/01/03 23:07:47;;;;;;;25.63;13.87;;;-0.70;1.00;;;;;;10437505;28;20258;-78
2024/01/03 23:13:09;;;;;;;24.53;14.67;;;-0.70;1.00;;;;;;10424796;28;20214;-79
2024/01/03 23:18:30;;;;;;;24.80;14.73;;;-0.80;1.00;;;;;;10412057;28;20212;-78
2024/01/03 23:23:52;;;;;;;27.73;15.47;;;-0.80;1.00;;;;;;10397259;28;20583;-79
2024/01/03 23:29:13;;;;;;;24.13;14.73;;;-0.80;99.90;;;;;;10433922;28;20209;-78
2024/01/03 23:34:34;;;;;;;26.50;15.20;;;-0.90;1.00;;;;;;10441689;28;20225;-79
2024/01/03 23:39:56;;;;;;;29.07;15.53;;;-0.80;99.90;;;;;;10409664;28;20199;-79
2024/01/03 23:45:17;;;;;;;28.17;15.83;;;-0.80;99.90;;;;;;10431813;28;20529;-78
2024/01/03 23:50:39;;;;;;;27.20;14.67;;;-0.80;99.90;;;;;;10405375;28;20202;-78
2024/01/03 23:56:00;;;;;;;29.20;17.30;;;-0.80;99.90;;;;;;10408421;28;20227;-78
